sensor_id;sensor_type;location;lat;lon;timestamp;P1;durP1;ratioP1;P2;durP2;ratioP2
81201;SDS011;71068;47.662;-2.750;2023-12-14T00:00:05;8.18;;;1.95;;
81201;SDS011;71068;47.662;-2.750;2023-12-14T00:02:34;1.98;;;1.67;;
81201;SDS011;71068;47.662;-2.750;2023-12-14T00:05:08;6.53;;;1.08;;
81201;SDS011;71068;47.662;-2.750;2023-12-14T00:07:39;1.67;;;1.58;;
81201;SDS011;71068;47.662;-2.750;2023-12-14T00:10:18;10.60;;;2.35;;
81201;SDS011;71068;47.662;-2.750;2023-12-14T00:12:46;1.35;;;1.05;;
81201;SDS011;71068;47.662;-2.750;2023-12-14T00:15:19;2.03;;;1.42;;
81201;SDS011;71068;47.662;-2.750;2023-12-14T00:17:47;1.55;;;1.45;;
81201;SDS011;71068;47.662;-2.750;2023-12-14T00:25:31;2.88;;;1.42;;
81201;SDS011;71068;47.662;-2.750;2023-12-14T00:28:00;0.85;;;0.85;;
81201;SDS011;71068;47.662;-2.750;2023-12-14T00:30:35;2.92;;;1.55;;
81201;SDS011;71068;47.662;-2.750;2023-12-14T00:33:04;1.95;;;1.35;;
81201;SDS011;71068;47.662;-2.750;2023-12-14T00:35:46;3.25;;;2.05;;
81201;SDS011;71068;47.662;-2.750;2023-12-14T00:38:16;3.65;;;1.55;;
81201;SDS011;71068;47.662;-2.750;2023-12-14T00:40:44;5.93;;;1.30;;
81201;SDS011;71068;47.662;-2.750;2023-12-14T00:43:13;1.02;;;0.80;;
81201;SDS011;71068;47.662;-2.750;2023-12-14T00:45:39;1.08;;;0.63;;
81201;SDS011;71068;47.662;-2.750;2023-12-14T00:48:06;5.93;;;1.13;;
81201;SDS011;71068;47.662;-2.750;2023-12-14T00:53:10;3.58;;;1.20;;
81201;SDS011;71068;47.662;-2.750;2023-12-14T00:55:36;4.60;;;1.42;;
81201;SDS011;71068;47.662;-2.750;2023-12-14T00:58:05;3.28;;;1.92;;
81201;SDS011;71068;47.662;-2.750;2023-12-14T01:00:35;9.98;;;1.05;;
81201;SDS011;71068;47.662;-2.750;2023-12-14T01:03:05;3.97;;;1.55;;
81201;SDS011;71068;47.662;-2.750;2023-12-14T01:08:08;1.00;;;0.98;;
81201;SDS011;71068;47.662;-2.750;2023-12-14T01:10:37;2.05;;;0.98;;
81201;SDS011;71068;47.662;-2.750;2023-12-14T01:13:03;1.65;;;1.27;;
81201;SDS011;71068;47.662;-2.750;2023-12-14T01:15:33;3.45;;;1.23;;
81201;SDS011;71068;47.662;-2.750;2023-12-14T01:17:59;5.15;;;1.45;;
81201;SDS011;71068;47.662;-2.750;2023-12-14T01:20:29;2.05;;;1.08;;
81201;SDS011;71068;47.662;-2.750;2023-12-14T01:22:55;2.70;;;1.80;;
81201;SDS011;71068;47.662;-2.750;2023-12-14T01:25:25;10.05;;;1.30;;
81201;SDS011;71068;47.662;-2.750;2023-12-14T01:27:51;1.85;;;1.23;;
81201;SDS011;71068;47.662;-2.750;2023-12-14T01:30:17;1.58;;;1.08;;
81201;SDS011;71068;47.662;-2.750;2023-12-14T01:32:45;3.72;;;1.00;;
81201;SDS011;71068;47.662;-2.750;2023-12-14T01:35:12;2.10;;;0.88;;
81201;SDS011;71068;47.662;-2.750;2023-12-14T01:37:38;5.03;;;1.23;;
81201;SDS011;71068;47.662;-2.750;2023-12-14T01:40:05;1.38;;;1.27;;
81201;SDS011;71068;47.662;-2.750;2023-12-14T01:42:31;6.43;;;1.60;;
81201;SDS011;71068;47.662;-2.750;2023-12-14T01:45:01;0.73;;;0.73;;
81201;SDS011;71068;47.662;-2.750;2023-12-14T01:47:30;0.80;;;0.80;;
81201;SDS011;71068;47.662;-2.750;2023-12-14T01:50:02;1.83;;;1.45;;
81201;SDS011;71068;47.662;-2.750;2023-12-14T01:55:00;1.58;;;0.95;;
81201;SDS011;71068;47.662;-2.750;2023-12-14T02:00:03;3.40;;;0.93;;
81201;SDS011;71068;47.662;-2.750;2023-12-14T02:02:35;4.57;;;1.05;;
81201;SDS011;71068;47.662;-2.750;2023-12-14T02:05:09;1.90;;;1.67;;
81201;SDS011;71068;47.662;-2.750;2023-12-14T02:07:39;1.65;;;1.27;;
81201;SDS011;71068;47.662;-2.750;2023-12-14T02:10:06;4.30;;;1.80;;
81201;SDS011;71068;47.662;-2.750;2023-12-14T02:12:41;6.60;;;1.88;;
81201;SDS011;71068;47.662;-2.750;2023-12-14T02:15:15;6.30;;;1.02;;
81201;SDS011;71068;47.662;-2.750;2023-12-14T02:17:44;1.10;;;1.00;;
81201;SDS011;71068;47.662;-2.750;2023-12-14T02:20:14;0.73;;;0.70;;
81201;SDS011;71068;47.662;-2.750;2023-12-14T02:22:51;8.80;;;1.15;;
81201;SDS011;71068;47.662;-2.750;2023-12-14T02:25:26;4.25;;;0.65;;
81201;SDS011;71068;47.662;-2.750;2023-12-14T02:27:52;4.30;;;1.05;;
81201;SDS011;71068;47.662;-2.750;2023-12-14T02:30:18;0.93;;;0.93;;
81201;SDS011;71068;47.662;-2.750;2023-12-14T02:32:45;3.42;;;1.50;;
81201;SDS011;71068;47.662;-2.750;2023-12-14T02:35:14;3.10;;;1.90;;
81201;SDS011;71068;47.662;-2.750;2023-12-14T02:37:43;1.70;;;1.52;;
81201;SDS011;71068;47.662;-2.750;2023-12-14T02:40:09;4.05;;;1.33;;
81201;SDS011;71068;47.662;-2.750;2023-12-14T02:42:37;1.48;;;1.20;;
81201;SDS011;71068;47.662;-2.750;2023-12-14T02:45:07;4.45;;;0.95;;
81201;SDS011;71068;47.662;-2.750;2023-12-14T02:47:36;1.50;;;1.05;;
81201;SDS011;71068;47.662;-2.750;2023-12-14T02:50:02;4.88;;;2.30;;
81201;SDS011;71068;47.662;-2.750;2023-12-14T02:52:29;3.03;;;1.55;;
81201;SDS011;71068;47.662;-2.750;2023-12-14T02:54:57;3.38;;;1.60;;
81201;SDS011;71068;47.662;-2.750;2023-12-14T02:57:23;2.95;;;1.33;;
81201;SDS011;71068;47.662;-2.750;2023-12-14T02:59:50;0.95;;;0.95;;
81201;SDS011;71068;47.662;-2.750;2023-12-14T03:02:17;1.48;;;0.68;;
81201;SDS011;71068;47.662;-2.750;2023-12-14T03:04:43;4.35;;;1.80;;
81201;SDS011;71068;47.662;-2.750;2023-12-14T03:07:15;0.98;;;0.82;;
81201;SDS011;71068;47.662;-2.750;2023-12-14T03:09:41;5.70;;;1.00;;
81201;SDS011;71068;47.662;-2.750;2023-12-14T03:14:43;1.20;;;1.10;;
81201;SDS011;71068;47.662;-2.750;2023-12-14T03:17:09;2.22;;;1.63;;
81201;SDS011;71068;47.662;-2.750;2023-12-14T03:19:41;7.45;;;1.67;;
81201;SDS011;71068;47.662;-2.750;2023-12-14T03:22:16;3.95;;;1.33;;
81201;SDS011;71068;47.662;-2.750;2023-12-14T03:24:42;1.77;;;1.33;;
81201;SDS011;71068;47.662;-2.750;2023-12-14T03:27:11;4.57;;;1.63;;
81201;SDS011;71068;47.662;-2.750;2023-12-14T03:29:37;9.13;;;1.98;;
81201;SDS011;71068;47.662;-2.750;2023-12-14T03:32:06;2.50;;;1.50;;
81201;SDS011;71068;47.662;-2.750;2023-12-14T03:34:35;4.72;;;1.73;;
81201;SDS011;71068;47.662;-2.750;2023-12-14T03:37:01;2.42;;;1.60;;
81201;SDS011;71068;47.662;-2.750;2023-12-14T03:39:30;1.00;;;0.98;;
81201;SDS011;71068;47.662;-2.750;2023-12-14T03:41:59;2.88;;;1.23;;
81201;SDS011;71068;47.662;-2.750;2023-12-14T03:44:25;3.63;;;1.30;;
81201;SDS011;71068;47.662;-2.750;2023-12-14T03:46:51;0.88;;;0.82;;
81201;SDS011;71068;47.662;-2.750;2023-12-14T03:49:21;1.27;;;1.08;;
81201;SDS011;71068;47.662;-2.750;2023-12-14T03:51:51;3.55;;;1.63;;
81201;SDS011;71068;47.662;-2.750;2023-12-14T03:54:20;1.50;;;1.23;;
81201;SDS011;71068;47.662;-2.750;2023-12-14T03:56:50;4.10;;;2.38;;
81201;SDS011;71068;47.662;-2.750;2023-12-14T03:59:16;5.95;;;1.90;;
81201;SDS011;71068;47.662;-2.750;2023-12-14T04:01:42;6.55;;;1.65;;
81201;SDS011;71068;47.662;-2.750;2023-12-14T04:04:17;1.63;;;1.52;;
81201;SDS011;71068;47.662;-2.750;2023-12-14T04:06:46;1.85;;;1.23;;
81201;SDS011;71068;47.662;-2.750;2023-12-14T04:09:12;4.07;;;2.10;;
81201;SDS011;71068;47.662;-2.750;2023-12-14T04:11:38;2.10;;;1.45;;
81201;SDS011;71068;47.662;-2.750;2023-12-14T04:14:07;5.50;;;1.13;;
81201;SDS011;71068;47.662;-2.750;2023-12-14T04:16:35;2.55;;;1.08;;
81201;SDS011;71068;47.662;-2.750;2023-12-14T04:19:03;6.40;;;1.40;;
81201;SDS011;71068;47.662;-2.750;2023-12-14T04:21:39;7.03;;;1.42;;
81201;SDS011;71068;47.662;-2.750;2023-12-14T04:24:06;1.10;;;1.00;;
81201;SDS011;71068;47.662;-2.750;2023-12-14T04:26:37;2.53;;;1.80;;
81201;SDS011;71068;47.662;-2.750;2023-12-14T04:29:16;1.13;;;1.02;;
81201;SDS011;71068;47.662;-2.750;2023-12-14T04:31:45;1.08;;;0.93;;
81201;SDS011;71068;47.662;-2.750;2023-12-14T04:34:14;0.85;;;0.82;;
81201;SDS011;71068;47.662;-2.750;2023-12-14T04:36:47;1.67;;;1.25;;
81201;SDS011;71068;47.662;-2.750;2023-12-14T04:39:16;2.15;;;1.20;;
81201;SDS011;71068;47.662;-2.750;2023-12-14T04:41:42;6.68;;;1.65;;
81201;SDS011;71068;47.662;-2.750;2023-12-14T04:44:08;1.58;;;0.90;;
81201;SDS011;71068;47.662;-2.750;2023-12-14T04:46:38;5.93;;;1.23;;
81201;SDS011;71068;47.662;-2.750;2023-12-14T04:49:10;0.90;;;0.90;;
81201;SDS011;71068;47.662;-2.750;2023-12-14T04:54:03;1.50;;;1.05;;
81201;SDS011;71068;47.662;-2.750;2023-12-14T04:56:29;4.55;;;1.33;;
81201;SDS011;71068;47.662;-2.750;2023-12-14T04:58:59;0.85;;;0.75;;
81201;SDS011;71068;47.662;-2.750;2023-12-14T05:01:28;1.38;;;1.27;;
81201;SDS011;71068;47.662;-2.750;2023-12-14T05:03:54;2.35;;;2.15;;
81201;SDS011;71068;47.662;-2.750;2023-12-14T05:06:23;1.45;;;1.35;;
81201;SDS011;71068;47.662;-2.750;2023-12-14T05:08:52;2.92;;;1.33;;
81201;SDS011;71068;47.662;-2.750;2023-12-14T05:11:20;2.97;;;1.00;;
81201;SDS011;71068;47.662;-2.750;2023-12-14T05:13:49;1.02;;;0.93;;
81201;SDS011;71068;47.662;-2.750;2023-12-14T05:16:18;2.67;;;1.33;;
81201;SDS011;71068;47.662;-2.750;2023-12-14T05:18:44;5.15;;;1.85;;
81201;SDS011;71068;47.662;-2.750;2023-12-14T05:21:15;1.90;;;1.65;;
81201;SDS011;71068;47.662;-2.750;2023-12-14T05:23:49;2.65;;;1.58;;
81201;SDS011;71068;47.662;-2.750;2023-12-14T05:26:18;3.70;;;1.90;;
81201;SDS011;71068;47.662;-2.750;2023-12-14T05:28:48;7.00;;;1.95;;
81201;SDS011;71068;47.662;-2.750;2023-12-14T05:31:19;2.00;;;1.20;;
81201;SDS011;71068;47.662;-2.750;2023-12-14T05:33:49;1.23;;;1.13;;
81201;SDS011;71068;47.662;-2.750;2023-12-14T05:36:24;1.10;;;1.00;;
81201;SDS011;71068;47.662;-2.750;2023-12-14T05:38:51;4.97;;;1.33;;
81201;SDS011;71068;47.662;-2.750;2023-12-14T05:41:26;2.35;;;1.35;;
81201;SDS011;71068;47.662;-2.750;2023-12-14T05:43:52;2.22;;;1.08;;
81201;SDS011;71068;47.662;-2.750;2023-12-14T05:46:21;2.15;;;1.15;;
81201;SDS011;71068;47.662;-2.750;2023-12-14T05:48:56;0.80;;;0.80;;
81201;SDS011;71068;47.662;-2.750;2023-12-14T05:51:32;5.25;;;1.55;;
81201;SDS011;71068;47.662;-2.750;2023-12-14T05:53:59;1.23;;;1.13;;
81201;SDS011;71068;47.662;-2.750;2023-12-14T05:56:31;1.65;;;1.20;;
81201;SDS011;71068;47.662;-2.750;2023-12-14T06:01:27;2.28;;;1.15;;
81201;SDS011;71068;47.662;-2.750;2023-12-14T06:03:57;3.00;;;1.48;;
81201;SDS011;71068;47.662;-2.750;2023-12-14T06:06:23;11.57;;;2.13;;
81201;SDS011;71068;47.662;-2.750;2023-12-14T06:08:52;3.47;;;2.33;;
81201;SDS011;71068;47.662;-2.750;2023-12-14T06:11:18;3.30;;;1.67;;
81201;SDS011;71068;47.662;-2.750;2023-12-14T06:13:48;7.78;;;2.50;;
81201;SDS011;71068;47.662;-2.750;2023-12-14T06:16:15;6.00;;;1.27;;
81201;SDS011;71068;47.662;-2.750;2023-12-14T06:18:44;4.20;;;1.17;;
81201;SDS011;71068;47.662;-2.750;2023-12-14T06:21:15;2.40;;;1.42;;
81201;SDS011;71068;47.662;-2.750;2023-12-14T06:23:47;1.55;;;1.45;;
81201;SDS011;71068;47.662;-2.750;2023-12-14T06:26:26;3.30;;;0.90;;
81201;SDS011;71068;47.662;-2.750;2023-12-14T06:31:29;2.33;;;1.95;;
81201;SDS011;71068;47.662;-2.750;2023-12-14T06:33:58;4.10;;;2.25;;
81201;SDS011;71068;47.662;-2.750;2023-12-14T06:36:26;6.38;;;1.92;;
81201;SDS011;71068;47.662;-2.750;2023-12-14T06:38:56;2.08;;;1.42;;
81201;SDS011;71068;47.662;-2.750;2023-12-14T06:41:41;3.08;;;1.50;;
81201;SDS011;71068;47.662;-2.750;2023-12-14T06:44:19;3.80;;;1.55;;
81201;SDS011;71068;47.662;-2.750;2023-12-14T06:46:45;2.47;;;1.33;;
81201;SDS011;71068;47.662;-2.750;2023-12-14T06:49:18;0.95;;;0.95;;
81201;SDS011;71068;47.662;-2.750;2023-12-14T06:51:52;1.63;;;1.27;;
81201;SDS011;71068;47.662;-2.750;2023-12-14T06:54:20;2.65;;;1.35;;
81201;SDS011;71068;47.662;-2.750;2023-12-14T06:56:46;1.10;;;1.00;;
81201;SDS011;71068;47.662;-2.750;2023-12-14T06:59:16;1.33;;;1.23;;
81201;SDS011;71068;47.662;-2.750;2023-12-14T07:01:47;3.70;;;1.67;;
81201;SDS011;71068;47.662;-2.750;2023-12-14T07:04:19;7.18;;;1.70;;
81201;SDS011;71068;47.662;-2.750;2023-12-14T07:09:31;3.88;;;1.45;;
81201;SDS011;71068;47.662;-2.750;2023-12-14T07:11:57;1.90;;;1.08;;
81201;SDS011;71068;47.662;-2.750;2023-12-14T07:16:54;2.63;;;1.95;;
81201;SDS011;71068;47.662;-2.750;2023-12-14T07:19:20;2.42;;;1.33;;
81201;SDS011;71068;47.662;-2.750;2023-12-14T07:21:46;7.47;;;2.28;;
81201;SDS011;71068;47.662;-2.750;2023-12-14T07:24:13;3.00;;;1.90;;
81201;SDS011;71068;47.662;-2.750;2023-12-14T07:26:41;4.18;;;2.85;;
81201;SDS011;71068;47.662;-2.750;2023-12-14T07:29:11;7.78;;;2.65;;
81201;SDS011;71068;47.662;-2.750;2023-12-14T07:31:46;5.55;;;2.08;;
81201;SDS011;71068;47.662;-2.750;2023-12-14T07:34:18;2.22;;;1.55;;
81201;SDS011;71068;47.662;-2.750;2023-12-14T07:36:50;4.30;;;1.75;;
81201;SDS011;71068;47.662;-2.750;2023-12-14T07:41:57;7.30;;;2.28;;
81201;SDS011;71068;47.662;-2.750;2023-12-14T07:44:24;2.55;;;1.77;;
81201;SDS011;71068;47.662;-2.750;2023-12-14T07:46:54;1.92;;;1.02;;
81201;SDS011;71068;47.662;-2.750;2023-12-14T07:49:39;8.13;;;1.98;;
81201;SDS011;71068;47.662;-2.750;2023-12-14T07:52:20;1.52;;;1.13;;
81201;SDS011;71068;47.662;-2.750;2023-12-14T07:54:52;3.92;;;1.15;;
81201;SDS011;71068;47.662;-2.750;2023-12-14T07:59:51;6.50;;;1.88;;
81201;SDS011;71068;47.662;-2.750;2023-12-14T08:05:21;2.20;;;2.00;;
81201;SDS011;71068;47.662;-2.750;2023-12-14T08:07:55;6.28;;;1.65;;
81201;SDS011;71068;47.662;-2.750;2023-12-14T08:10:25;1.48;;;1.38;;
81201;SDS011;71068;47.662;-2.750;2023-12-14T08:12:59;2.90;;;1.42;;
81201;SDS011;71068;47.662;-2.750;2023-12-14T08:15:31;6.93;;;1.88;;
81201;SDS011;71068;47.662;-2.750;2023-12-14T08:18:19;1.70;;;1.60;;
81201;SDS011;71068;47.662;-2.750;2023-12-14T08:21:08;6.90;;;1.25;;
81201;SDS011;71068;47.662;-2.750;2023-12-14T08:23:59;1.23;;;1.13;;
81201;SDS011;71068;47.662;-2.750;2023-12-14T08:59:08;1.45;;;1.10;;
81201;SDS011;71068;47.662;-2.750;2023-12-14T09:53:25;5.22;;;1.95;;
81201;SDS011;71068;47.662;-2.750;2023-12-14T09:56:17;4.13;;;1.70;;
81201;SDS011;71068;47.662;-2.750;2023-12-14T10:10:19;1.65;;;1.55;;
81201;SDS011;71068;47.662;-2.750;2023-12-14T10:12:54;7.88;;;1.67;;
81201;SDS011;71068;47.662;-2.750;2023-12-14T10:15:21;3.25;;;1.42;;
81201;SDS011;71068;47.662;-2.750;2023-12-14T10:18:05;7.72;;;2.70;;
81201;SDS011;71068;47.662;-2.750;2023-12-14T10:23:30;5.53;;;2.38;;
81201;SDS011;71068;47.662;-2.750;2023-12-14T10:26:04;5.97;;;1.83;;
81201;SDS011;71068;47.662;-2.750;2023-12-14T10:28:30;1.98;;;1.75;;
81201;SDS011;71068;47.662;-2.750;2023-12-14T10:31:01;7.10;;;2.95;;
81201;SDS011;71068;47.662;-2.750;2023-12-14T10:33:42;4.45;;;1.65;;
81201;SDS011;71068;47.662;-2.750;2023-12-14T10:36:15;3.20;;;1.60;;
81201;SDS011;71068;47.662;-2.750;2023-12-14T10:39:01;13.40;;;1.92;;
81201;SDS011;71068;47.662;-2.750;2023-12-14T10:41:40;4.97;;;1.85;;
81201;SDS011;71068;47.662;-2.750;2023-12-14T10:44:06;5.05;;;1.92;;
81201;SDS011;71068;47.662;-2.750;2023-12-14T10:54:08;3.40;;;1.63;;
81201;SDS011;71068;47.662;-2.750;2023-12-14T11:05:05;15.38;;;4.78;;
81201;SDS011;71068;47.662;-2.750;2023-12-14T11:12:33;13.60;;;6.15;;
81201;SDS011;71068;47.662;-2.750;2023-12-14T11:15:39;16.25;;;5.70;;
81201;SDS011;71068;47.662;-2.750;2023-12-14T11:46:59;8.65;;;4.22;;
81201;SDS011;71068;47.662;-2.750;2023-12-14T11:52:23;8.07;;;3.80;;
81201;SDS011;71068;47.662;-2.750;2023-12-14T12:10:01;4.90;;;2.70;;
81201;SDS011;71068;47.662;-2.750;2023-12-14T12:12:44;6.63;;;2.95;;
81201;SDS011;71068;47.662;-2.750;2023-12-14T12:18:42;11.52;;;3.45;;
81201;SDS011;71068;47.662;-2.750;2023-12-14T12:26:48;6.25;;;2.72;;
81201;SDS011;71068;47.662;-2.750;2023-12-14T12:31:49;14.68;;;3.40;;
81201;SDS011;71068;47.662;-2.750;2023-12-14T12:34:18;3.92;;;2.47;;
81201;SDS011;71068;47.662;-2.750;2023-12-14T12:51:12;2.67;;;1.67;;
81201;SDS011;71068;47.662;-2.750;2023-12-14T12:54:11;3.28;;;1.50;;
81201;SDS011;71068;47.662;-2.750;2023-12-14T12:56:57;7.72;;;2.05;;
81201;SDS011;71068;47.662;-2.750;2023-12-14T12:59:46;3.65;;;2.15;;
81201;SDS011;71068;47.662;-2.750;2023-12-14T13:02:25;8.13;;;2.30;;
81201;SDS011;71068;47.662;-2.750;2023-12-14T13:05:19;9.82;;;2.75;;
81201;SDS011;71068;47.662;-2.750;2023-12-14T13:16:18;3.47;;;2.10;;
81201;SDS011;71068;47.662;-2.750;2023-12-14T13:18:59;4.97;;;1.85;;
81201;SDS011;71068;47.662;-2.750;2023-12-14T13:21:40;10.20;;;2.42;;
81201;SDS011;71068;47.662;-2.750;2023-12-14T13:24:12;3.17;;;1.92;;
81201;SDS011;71068;47.662;-2.750;2023-12-14T13:26:39;9.15;;;2.70;;
81201;SDS011;71068;47.662;-2.750;2023-12-14T13:29:05;8.38;;;3.08;;
81201;SDS011;71068;47.662;-2.750;2023-12-14T13:31:31;5.40;;;2.53;;
81201;SDS011;71068;47.662;-2.750;2023-12-14T13:34:04;7.43;;;3.25;;
81201;SDS011;71068;47.662;-2.750;2023-12-14T13:36:31;4.85;;;2.67;;
81201;SDS011;71068;47.662;-2.750;2023-12-14T13:38:57;2.58;;;1.50;;
81201;SDS011;71068;47.662;-2.750;2023-12-14T13:41:24;3.95;;;2.35;;
81201;SDS011;71068;47.662;-2.750;2023-12-14T13:43:56;15.50;;;3.33;;
81201;SDS011;71068;47.662;-2.750;2023-12-14T13:46:26;5.57;;;2.17;;
81201;SDS011;71068;47.662;-2.750;2023-12-14T13:48:55;2.70;;;1.73;;
81201;SDS011;71068;47.662;-2.750;2023-12-14T13:51:24;12.30;;;3.60;;
81201;SDS011;71068;47.662;-2.750;2023-12-14T13:53:54;10.52;;;2.45;;
81201;SDS011;71068;47.662;-2.750;2023-12-14T13:56:20;10.25;;;2.67;;
81201;SDS011;71068;47.662;-2.750;2023-12-14T13:58:49;22.55;;;9.15;;
81201;SDS011;71068;47.662;-2.750;2023-12-14T14:01:18;10.77;;;3.33;;
81201;SDS011;71068;47.662;-2.750;2023-12-14T14:06:29;6.13;;;3.10;;
81201;SDS011;71068;47.662;-2.750;2023-12-14T14:08:58;5.03;;;2.25;;
81201;SDS011;71068;47.662;-2.750;2023-12-14T14:11:39;4.53;;;3.00;;
81201;SDS011;71068;47.662;-2.750;2023-12-14T14:17:31;4.10;;;1.70;;
81201;SDS011;71068;47.662;-2.750;2023-12-14T14:20:13;10.80;;;1.70;;
81201;SDS011;71068;47.662;-2.750;2023-12-14T14:25:16;4.32;;;1.50;;
81201;SDS011;71068;47.662;-2.750;2023-12-14T14:27:45;7.97;;;1.27;;
81201;SDS011;71068;47.662;-2.750;2023-12-14T14:30:12;5.38;;;1.40;;
81201;SDS011;71068;47.662;-2.750;2023-12-14T14:32:39;3.33;;;1.67;;
81201;SDS011;71068;47.662;-2.750;2023-12-14T14:35:05;5.95;;;1.60;;
81201;SDS011;71068;47.662;-2.750;2023-12-14T14:37:35;3.42;;;1.77;;
81201;SDS011;71068;47.662;-2.750;2023-12-14T14:40:10;4.72;;;1.20;;
81201;SDS011;71068;47.662;-2.750;2023-12-14T14:42:42;6.28;;;1.85;;
81201;SDS011;71068;47.662;-2.750;2023-12-14T14:45:17;1.15;;;0.95;;
81201;SDS011;71068;47.662;-2.750;2023-12-14T14:47:43;7.93;;;2.97;;
81201;SDS011;71068;47.662;-2.750;2023-12-14T14:52:41;4.25;;;1.17;;
81201;SDS011;71068;47.662;-2.750;2023-12-14T14:55:10;9.98;;;1.77;;
81201;SDS011;71068;47.662;-2.750;2023-12-14T14:57:36;4.88;;;1.30;;
81201;SDS011;71068;47.662;-2.750;2023-12-14T15:00:05;2.15;;;1.27;;
81201;SDS011;71068;47.662;-2.750;2023-12-14T15:02:35;1.27;;;1.02;;
81201;SDS011;71068;47.662;-2.750;2023-12-14T15:05:04;6.35;;;1.42;;
81201;SDS011;71068;47.662;-2.750;2023-12-14T15:07:30;6.40;;;2.08;;
81201;SDS011;71068;47.662;-2.750;2023-12-14T15:09:59;6.03;;;1.42;;
81201;SDS011;71068;47.662;-2.750;2023-12-14T15:12:28;1.10;;;0.93;;
81201;SDS011;71068;47.662;-2.750;2023-12-14T15:14:59;1.10;;;0.55;;
81201;SDS011;71068;47.662;-2.750;2023-12-14T15:17:38;1.38;;;1.27;;
81201;SDS011;71068;47.662;-2.750;2023-12-14T15:20:07;2.45;;;1.45;;
81201;SDS011;71068;47.662;-2.750;2023-12-14T15:22:37;5.45;;;1.23;;
81201;SDS011;71068;47.662;-2.750;2023-12-14T15:25:09;0.80;;;0.63;;
81201;SDS011;71068;47.662;-2.750;2023-12-14T15:30:02;2.20;;;0.93;;
81201;SDS011;71068;47.662;-2.750;2023-12-14T15:32:31;3.40;;;0.77;;
81201;SDS011;71068;47.662;-2.750;2023-12-14T15:34:58;1.08;;;0.80;;
81201;SDS011;71068;47.662;-2.750;2023-12-14T15:37:24;3.22;;;0.88;;
81201;SDS011;71068;47.662;-2.750;2023-12-14T15:39:50;1.17;;;1.02;;
81201;SDS011;71068;47.662;-2.750;2023-12-14T15:42:18;2.65;;;0.77;;
81201;SDS011;71068;47.662;-2.750;2023-12-14T15:44:47;1.48;;;1.17;;
81201;SDS011;71068;47.662;-2.750;2023-12-14T15:47:14;8.70;;;1.73;;
81201;SDS011;71068;47.662;-2.750;2023-12-14T15:49:43;6.80;;;1.60;;
81201;SDS011;71068;47.662;-2.750;2023-12-14T15:52:16;4.90;;;2.45;;
81201;SDS011;71068;47.662;-2.750;2023-12-14T15:54:42;5.43;;;1.70;;
81201;SDS011;71068;47.662;-2.750;2023-12-14T15:57:12;3.47;;;1.15;;
81201;SDS011;71068;47.662;-2.750;2023-12-14T16:02:13;2.75;;;1.73;;
81201;SDS011;71068;47.662;-2.750;2023-12-14T16:04:39;6.00;;;2.00;;
81201;SDS011;71068;47.662;-2.750;2023-12-14T16:07:05;3.20;;;1.85;;
81201;SDS011;71068;47.662;-2.750;2023-12-14T16:09:32;2.20;;;1.60;;
81201;SDS011;71068;47.662;-2.750;2023-12-14T16:12:01;3.78;;;1.92;;
81201;SDS011;71068;47.662;-2.750;2023-12-14T16:14:29;4.35;;;1.85;;
81201;SDS011;71068;47.662;-2.750;2023-12-14T16:16:59;8.05;;;2.47;;
81201;SDS011;71068;47.662;-2.750;2023-12-14T16:19:28;4.20;;;1.73;;
81201;SDS011;71068;47.662;-2.750;2023-12-14T16:21:54;6.00;;;2.65;;
81201;SDS011;71068;47.662;-2.750;2023-12-14T16:24:22;4.70;;;2.58;;
81201;SDS011;71068;47.662;-2.750;2023-12-14T16:26:54;5.35;;;2.72;;
81201;SDS011;71068;47.662;-2.750;2023-12-14T16:29:21;5.15;;;2.80;;
81201;SDS011;71068;47.662;-2.750;2023-12-14T16:31:49;6.57;;;1.95;;
81201;SDS011;71068;47.662;-2.750;2023-12-14T16:34:16;6.57;;;2.55;;
81201;SDS011;71068;47.662;-2.750;2023-12-14T16:36:48;5.28;;;2.85;;
81201;SDS011;71068;47.662;-2.750;2023-12-14T16:39:14;4.28;;;1.83;;
81201;SDS011;71068;47.662;-2.750;2023-12-14T16:41:50;3.75;;;2.40;;
81201;SDS011;71068;47.662;-2.750;2023-12-14T16:44:20;9.25;;;2.70;;
81201;SDS011;71068;47.662;-2.750;2023-12-14T16:46:49;4.22;;;2.65;;
81201;SDS011;71068;47.662;-2.750;2023-12-14T16:49:19;4.38;;;2.53;;
81201;SDS011;71068;47.662;-2.750;2023-12-14T16:51:45;5.40;;;2.40;;
81201;SDS011;71068;47.662;-2.750;2023-12-14T16:54:11;8.45;;;2.83;;
81201;SDS011;71068;47.662;-2.750;2023-12-14T16:56:40;7.93;;;3.03;;
81201;SDS011;71068;47.662;-2.750;2023-12-14T16:59:13;7.90;;;3.00;;
81201;SDS011;71068;47.662;-2.750;2023-12-14T17:01:46;5.07;;;2.40;;
81201;SDS011;71068;47.662;-2.750;2023-12-14T17:04:18;5.00;;;3.10;;
81201;SDS011;71068;47.662;-2.750;2023-12-14T17:06:50;8.25;;;2.90;;
81201;SDS011;71068;47.662;-2.750;2023-12-14T17:09:18;7.13;;;3.42;;
81201;SDS011;71068;47.662;-2.750;2023-12-14T17:11:45;15.10;;;3.08;;
81201;SDS011;71068;47.662;-2.750;2023-12-14T17:14:11;3.15;;;2.75;;
81201;SDS011;71068;47.662;-2.750;2023-12-14T17:16:41;7.57;;;3.67;;
81201;SDS011;71068;47.662;-2.750;2023-12-14T17:19:13;5.75;;;3.65;;
81201;SDS011;71068;47.662;-2.750;2023-12-14T17:21:43;12.73;;;3.83;;
81201;SDS011;71068;47.662;-2.750;2023-12-14T17:24:11;10.27;;;3.72;;
81201;SDS011;71068;47.662;-2.750;2023-12-14T17:26:43;7.07;;;3.75;;
81201;SDS011;71068;47.662;-2.750;2023-12-14T17:29:11;7.70;;;4.35;;
81201;SDS011;71068;47.662;-2.750;2023-12-14T17:31:43;10.77;;;5.07;;
81201;SDS011;71068;47.662;-2.750;2023-12-14T17:34:14;11.27;;;5.13;;
81201;SDS011;71068;47.662;-2.750;2023-12-14T17:36:46;12.23;;;5.13;;
81201;SDS011;71068;47.662;-2.750;2023-12-14T17:39:21;10.52;;;4.60;;
81201;SDS011;71068;47.662;-2.750;2023-12-14T17:41:50;5.35;;;3.20;;
81201;SDS011;71068;47.662;-2.750;2023-12-14T17:44:21;7.82;;;3.85;;
81201;SDS011;71068;47.662;-2.750;2023-12-14T17:46:52;10.18;;;4.00;;
81201;SDS011;71068;47.662;-2.750;2023-12-14T17:49:18;7.22;;;3.63;;
81201;SDS011;71068;47.662;-2.750;2023-12-14T17:51:47;7.53;;;4.47;;
81201;SDS011;71068;47.662;-2.750;2023-12-14T17:54:16;15.18;;;5.78;;
81201;SDS011;71068;47.662;-2.750;2023-12-14T17:59:17;9.30;;;6.28;;
81201;SDS011;71068;47.662;-2.750;2023-12-14T18:04:16;6.28;;;3.58;;
81201;SDS011;71068;47.662;-2.750;2023-12-14T18:06:45;14.35;;;5.25;;
81201;SDS011;71068;47.662;-2.750;2023-12-14T18:09:16;7.75;;;4.03;;
81201;SDS011;71068;47.662;-2.750;2023-12-14T18:12:00;8.05;;;4.13;;
81201;SDS011;71068;47.662;-2.750;2023-12-14T18:14:39;8.75;;;4.82;;
81201;SDS011;71068;47.662;-2.750;2023-12-14T18:17:07;13.18;;;5.22;;
81201;SDS011;71068;47.662;-2.750;2023-12-14T18:19:36;21.88;;;5.82;;
81201;SDS011;71068;47.662;-2.750;2023-12-14T18:22:05;8.35;;;4.63;;
81201;SDS011;71068;47.662;-2.750;2023-12-14T18:24:31;9.55;;;3.85;;
81201;SDS011;71068;47.662;-2.750;2023-12-14T18:27:04;11.38;;;3.75;;
81201;SDS011;71068;47.662;-2.750;2023-12-14T18:29:36;10.98;;;4.05;;
81201;SDS011;71068;47.662;-2.750;2023-12-14T18:32:02;9.57;;;4.13;;
81201;SDS011;71068;47.662;-2.750;2023-12-14T18:34:32;9.85;;;4.07;;
81201;SDS011;71068;47.662;-2.750;2023-12-14T18:37:00;6.40;;;3.67;;
81201;SDS011;71068;47.662;-2.750;2023-12-14T18:39:26;10.10;;;4.25;;
81201;SDS011;71068;47.662;-2.750;2023-12-14T18:41:55;13.90;;;4.43;;
81201;SDS011;71068;47.662;-2.750;2023-12-14T18:44:21;10.98;;;5.15;;
81201;SDS011;71068;47.662;-2.750;2023-12-14T18:46:47;12.02;;;4.55;;
81201;SDS011;71068;47.662;-2.750;2023-12-14T18:49:17;7.43;;;3.60;;
81201;SDS011;71068;47.662;-2.750;2023-12-14T18:51:45;10.38;;;4.97;;
81201;SDS011;71068;47.662;-2.750;2023-12-14T18:54:11;7.63;;;4.57;;
81201;SDS011;71068;47.662;-2.750;2023-12-14T18:56:40;8.20;;;5.18;;
81201;SDS011;71068;47.662;-2.750;2023-12-14T18:59:09;6.85;;;4.35;;
81201;SDS011;71068;47.662;-2.750;2023-12-14T19:01:35;13.20;;;5.00;;
81201;SDS011;71068;47.662;-2.750;2023-12-14T19:04:04;7.15;;;4.35;;
81201;SDS011;71068;47.662;-2.750;2023-12-14T19:06:30;9.40;;;5.25;;
81201;SDS011;71068;47.662;-2.750;2023-12-14T19:08:56;12.80;;;6.13;;
81201;SDS011;71068;47.662;-2.750;2023-12-14T19:11:22;10.10;;;6.03;;